createdAt,value
2018-08-18T00:00:22.870Z,4.15
2018-08-18T00:02:51.583Z,3.60
2018-08-18T00:05:20.067Z,3.33
2018-08-18T00:07:48.683Z,2.92
2018-08-18T00:10:23.783Z,3.72
2018-08-18T00:12:52.674Z,3.22
2018-08-18T00:15:21.379Z,4.65
2018-08-18T00:17:50.340Z,2.87
2018-08-18T00:20:20.683Z,3.83
2018-08-18T00:22:54.355Z,3.30
2018-08-18T00:25:22.860Z,3.50
2018-08-18T00:27:51.732Z,3.15
2018-08-18T00:30:26.160Z,3.12
2018-08-18T00:32:59.701Z,3.00
2018-08-18T00:35:28.266Z,3.08
2018-08-18T00:37:56.717Z,2.95
2018-08-18T00:40:25.227Z,3.05
2018-08-18T00:42:53.855Z,2.90
2018-08-18T00:45:22.541Z,3.17
2018-08-18T00:47:51.887Z,3.25
2018-08-18T00:50:35.537Z,2.98
2018-08-18T00:53:05.131Z,3.70
2018-08-18T00:55:34.227Z,3.52
2018-08-18T00:58:02.791Z,3.10
2018-08-18T01:00:31.337Z,3.27
2018-08-18T01:03:00.419Z,2.92
2018-08-18T01:05:28.925Z,3.27
2018-08-18T01:07:57.366Z,3.20
2018-08-18T01:10:25.891Z,3.40
2018-08-18T01:12:54.505Z,3.62
2018-08-18T01:15:26.624Z,3.45
2018-08-18T01:17:55.519Z,3.00
2018-08-18T01:20:24.052Z,3.20
2018-08-18T01:23:00.740Z,3.33
2018-08-18T01:25:29.230Z,3.33
2018-08-18T01:28:01.704Z,3.02
2018-08-18T01:30:30.761Z,4.08
2018-08-18T01:32:59.347Z,3.15
2018-08-18T01:35:28.443Z,3.40
2018-08-18T01:37:57.040Z,3.08
2018-08-18T01:40:25.528Z,3.42
2018-08-18T01:43:07.638Z,4.58
2018-08-18T01:45:36.287Z,3.42
2018-08-18T01:48:04.906Z,3.05
2018-08-18T01:50:33.472Z,3.35
2018-08-18T01:53:20.568Z,3.75
2018-08-18T01:55:49.194Z,4.20
2018-08-18T01:58:17.853Z,3.42
2018-08-18T02:00:46.319Z,4.60
2018-08-18T02:03:14.773Z,3.98
2018-08-18T02:05:43.225Z,3.25
2018-08-18T02:08:11.757Z,3.22
2018-08-18T02:10:40.255Z,3.52
2018-08-18T02:13:08.924Z,3.95
2018-08-18T02:15:37.422Z,3.67
2018-08-18T02:18:05.928Z,3.45
2018-08-18T02:20:34.337Z,3.77
2018-08-18T02:23:03.014Z,3.60
2018-08-18T02:25:31.882Z,3.45
2018-08-18T02:28:00.388Z,3.35
2018-08-18T02:30:28.803Z,3.35
2018-08-18T02:33:02.304Z,3.50
2018-08-18T02:35:30.900Z,5.78
2018-08-18T02:37:59.428Z,3.83
2018-08-18T02:40:28.220Z,3.40
2018-08-18T02:43:11.581Z,3.90
2018-08-18T02:45:40.066Z,3.52
2018-08-18T02:48:14.842Z,3.33
2018-08-18T02:50:48.497Z,5.08
2018-08-18T02:53:25.411Z,3.85
2018-08-18T02:55:54.784Z,3.15
2018-08-18T02:58:23.461Z,4.10
2018-08-18T03:00:51.962Z,3.42
2018-08-18T03:03:20.465Z,4.70
2018-08-18T03:05:48.950Z,5.42
2018-08-18T03:08:17.507Z,4.45
2018-08-18T03:10:46.020Z,3.75
2018-08-18T03:13:14.629Z,4.20
2018-08-18T03:15:58.913Z,3.83
2018-08-18T03:18:36.863Z,3.92
2018-08-18T03:21:05.504Z,4.20
2018-08-18T03:23:49.087Z,4.28
2018-08-18T03:26:18.442Z,6.42
2018-08-18T03:28:53.271Z,4.12
2018-08-18T03:31:21.804Z,4.17
2018-08-18T03:33:50.266Z,4.62
2018-08-18T03:36:29.961Z,3.30
2018-08-18T03:38:59.027Z,4.55
2018-08-18T03:41:28.599Z,3.80
2018-08-18T03:43:57.609Z,7.22
2018-08-18T03:46:26.166Z,4.17
2018-08-18T03:48:54.626Z,7.28
2018-08-18T03:51:32.166Z,4.30
2018-08-18T03:54:02.502Z,5.35
2018-08-18T03:56:32.485Z,4.28
2018-08-18T03:59:01.740Z,4.03
2018-08-18T04:01:54.858Z,4.50
2018-08-18T04:04:24.722Z,3.90
2018-08-18T04:06:54.493Z,3.90
2018-08-18T04:09:24.483Z,3.75
2018-08-18T04:11:53.320Z,3.92
2018-08-18T04:14:54.672Z,4.03
2018-08-18T04:17:31.642Z,3.75
2018-08-18T04:20:00.283Z,4.08
2018-08-18T04:22:29.012Z,3.95
2018-08-18T04:24:57.659Z,4.17
2018-08-18T04:27:44.937Z,3.90
2018-08-18T04:30:16.624Z,7.67
2018-08-18T04:33:01.342Z,4.92
2018-08-18T04:35:30.988Z,4.00
2018-08-18T04:38:01.616Z,4.62
2018-08-18T04:40:30.208Z,4.22
2018-08-18T04:43:00.757Z,5.42
2018-08-18T04:45:29.537Z,5.22
2018-08-18T04:47:59.060Z,3.98
2018-08-18T04:50:28.100Z,4.25
2018-08-18T04:52:57.780Z,5.03
2018-08-18T04:55:26.542Z,5.50
2018-08-18T04:57:55.326Z,9.58
2018-08-18T05:00:25.428Z,4.72
2018-08-18T05:02:56.948Z,4.50
2018-08-18T05:05:29.974Z,6.80
2018-08-18T05:07:59.652Z,4.75
2018-08-18T05:10:28.326Z,5.70
2018-08-18T05:12:56.966Z,4.62
2018-08-18T05:15:25.361Z,4.53
2018-08-18T05:17:53.885Z,4.80
2018-08-18T05:20:24.316Z,4.10
2018-08-18T05:22:53.768Z,6.53
2018-08-18T05:25:27.100Z,4.95
2018-08-18T05:27:55.849Z,5.10
2018-08-18T05:30:24.426Z,4.35
2018-08-18T05:32:52.975Z,4.42
2018-08-18T05:35:21.531Z,5.90
2018-08-18T05:37:49.950Z,4.58
2018-08-18T05:40:18.419Z,4.10
2018-08-18T05:42:47.009Z,5.50
2018-08-18T05:45:25.879Z,7.67
2018-08-18T05:47:54.541Z,6.95
2018-08-18T05:50:25.636Z,5.80
2018-08-18T05:52:58.500Z,5.97
2018-08-18T05:55:27.120Z,5.33
2018-08-18T05:57:55.550Z,5.55
2018-08-18T06:00:25.724Z,5.37
2018-08-18T06:02:58.653Z,4.58
2018-08-18T06:05:29.785Z,5.42
2018-08-18T06:07:59.382Z,3.92
2018-08-18T06:10:27.924Z,4.35
2018-08-18T06:12:56.660Z,4.35
2018-08-18T06:15:25.576Z,4.62
2018-08-18T06:17:54.812Z,4.28
2018-08-18T06:20:24.752Z,4.95
2018-08-18T06:25:35.176Z,4.53
2018-08-18T06:28:03.789Z,4.62
2018-08-18T06:30:33.439Z,4.37
2018-08-18T06:33:03.757Z,5.25
2018-08-18T06:35:33.919Z,4.78
2018-08-18T06:38:04.515Z,7.85
2018-08-18T06:40:33.797Z,5.10
2018-08-18T06:43:03.336Z,4.92
2018-08-18T06:45:31.787Z,4.95
2018-08-18T06:48:17.745Z,5.08
2018-08-18T06:50:46.222Z,5.35
2018-08-18T06:53:15.448Z,4.97
2018-08-18T06:55:43.863Z,4.47
2018-08-18T06:58:12.431Z,5.08
2018-08-18T07:00:40.905Z,4.75
2018-08-18T07:03:20.714Z,4.92
2018-08-18T07:05:49.283Z,5.12
2018-08-18T07:08:17.770Z,4.83
2018-08-18T07:10:46.486Z,5.05
2018-08-18T07:13:15.108Z,4.00
2018-08-18T07:15:44.891Z,5.37
2018-08-18T07:18:14.394Z,4.53
2018-08-18T07:20:43.791Z,5.70
2018-08-18T07:23:12.321Z,5.15
2018-08-18T07:25:48.161Z,4.55
2018-08-18T07:28:23.303Z,4.15
2018-08-18T07:30:51.868Z,5.12
2018-08-18T07:33:20.474Z,5.53
2018-08-18T07:35:49.202Z,4.35
2018-08-18T07:38:17.744Z,5.25
2018-08-18T07:40:48.894Z,4.90
2018-08-18T07:43:19.965Z,5.33
2018-08-18T07:45:49.566Z,4.50
2018-08-18T07:48:18.111Z,5.22
2018-08-18T07:50:46.589Z,5.17
2018-08-18T07:53:15.340Z,6.33
2018-08-18T07:55:43.699Z,4.87
2018-08-18T07:58:14.864Z,4.55
2018-08-18T08:00:43.600Z,4.92
2018-08-18T08:03:17.925Z,4.67
2018-08-18T08:05:46.556Z,5.42
2018-08-18T08:08:15.074Z,5.75
2018-08-18T08:10:43.725Z,4.37
2018-08-18T08:13:13.692Z,4.62
2018-08-18T08:15:42.202Z,4.42
2018-08-18T08:18:13.505Z,5.15
2018-08-18T08:20:42.030Z,5.12
2018-08-18T08:23:10.575Z,6.87
2018-08-18T08:25:39.489Z,6.58
2018-08-18T08:28:07.998Z,5.55
2018-08-18T08:30:37.440Z,4.65
2018-08-18T08:33:06.534Z,4.10
2018-08-18T08:35:37.763Z,5.08
2018-08-18T08:38:06.299Z,6.53
2018-08-18T08:40:35.150Z,6.50
2018-08-18T08:43:03.813Z,5.37
2018-08-18T08:45:32.303Z,7.12
2018-08-18T08:48:00.832Z,4.40
2018-08-18T08:50:29.400Z,6.03
2018-08-18T08:52:58.252Z,3.98
2018-08-18T08:55:28.957Z,5.42
2018-08-18T08:57:57.438Z,4.28
2018-08-18T09:00:26.006Z,4.03
2018-08-18T09:02:54.502Z,3.98
2018-08-18T09:05:23.147Z,5.00
2018-08-18T09:07:51.770Z,5.00
2018-08-18T09:10:20.510Z,4.58
2018-08-18T09:12:48.945Z,3.83
2018-08-18T09:15:17.922Z,4.28
2018-08-18T09:17:46.529Z,6.65
2018-08-18T09:20:17.372Z,5.72
2018-08-18T09:22:53.707Z,3.65
2018-08-18T09:25:22.520Z,3.80
2018-08-18T09:27:55.641Z,3.10
2018-08-18T09:30:25.114Z,4.28
2018-08-18T09:32:53.743Z,3.58
2018-08-18T09:35:22.236Z,3.00
2018-08-18T09:37:55.212Z,3.80
2018-08-18T09:40:23.730Z,3.50
2018-08-18T09:42:52.313Z,3.20
2018-08-18T09:45:20.897Z,4.10
2018-08-18T09:47:49.302Z,3.12
2018-08-18T09:50:17.772Z,3.75
2018-08-18T09:52:46.271Z,3.77
2018-08-18T09:55:14.751Z,3.63
2018-08-18T09:57:43.848Z,3.65
2018-08-18T10:00:15.503Z,3.55
2018-08-18T10:02:45.378Z,3.95
2018-08-18T10:05:14.342Z,3.67
2018-08-18T10:07:43.316Z,3.60
2018-08-18T10:10:14.796Z,3.37
2018-08-18T10:12:44.503Z,4.90
2018-08-18T10:15:27.891Z,4.50
2018-08-18T10:17:57.290Z,4.62
2018-08-18T10:20:26.780Z,4.12
2018-08-18T10:22:57.084Z,4.15
2018-08-18T10:25:25.910Z,4.33
2018-08-18T10:27:55.330Z,4.20
2018-08-18T10:30:24.500Z,3.97
2018-08-18T10:32:54.896Z,4.30
2018-08-18T10:35:28.674Z,4.60
2018-08-18T10:37:57.420Z,5.73
2018-08-18T10:40:27.263Z,4.60
2018-08-18T10:42:57.065Z,3.42
2018-08-18T10:45:25.603Z,4.35
2018-08-18T10:47:54.308Z,4.22
2018-08-18T10:50:33.855Z,4.42
2018-08-18T10:53:12.171Z,3.52
2018-08-18T10:55:40.790Z,3.75
2018-08-18T10:58:10.333Z,3.50
2018-08-18T11:00:39.253Z,4.12
2018-08-18T11:03:08.948Z,4.75
2018-08-18T11:05:37.575Z,4.47
2018-08-18T11:08:07.005Z,4.72
2018-08-18T11:10:36.948Z,4.80
2018-08-18T11:13:05.603Z,6.20
2018-08-18T11:15:34.158Z,3.87
2018-08-18T11:18:02.725Z,6.28
2018-08-18T11:20:32.646Z,3.50
2018-08-18T11:23:07.855Z,3.45
2018-08-18T11:25:41.959Z,3.93
2018-08-18T11:28:11.351Z,3.55
2018-08-18T11:30:40.022Z,4.12
2018-08-18T11:33:08.583Z,4.62
2018-08-18T11:35:51.376Z,4.30
2018-08-18T11:38:20.043Z,3.67
2018-08-18T11:40:48.609Z,3.58
2018-08-18T11:43:17.616Z,4.00
2018-08-18T11:45:46.606Z,3.42
2018-08-18T11:48:31.392Z,5.35
2018-08-18T11:50:59.910Z,5.43
2018-08-18T11:53:28.511Z,4.90
2018-08-18T11:55:56.968Z,5.20
2018-08-18T11:58:25.599Z,3.55
2018-08-18T12:00:58.250Z,4.08
2018-08-18T12:03:32.490Z,4.55
2018-08-18T12:06:03.957Z,4.12
2018-08-18T12:08:33.650Z,4.67
2018-08-18T12:11:04.516Z,3.70
2018-08-18T12:13:38.393Z,3.47
2018-08-18T12:16:10.132Z,4.08
2018-08-18T12:18:39.406Z,3.75
2018-08-18T12:21:08.201Z,3.47
2018-08-18T12:23:37.696Z,3.27
2018-08-18T12:26:08.722Z,7.67
2018-08-18T12:28:42.463Z,3.50
2018-08-18T12:31:12.812Z,3.70
2018-08-18T12:33:41.457Z,3.92
2018-08-18T12:36:10.050Z,3.60
2018-08-18T12:38:43.464Z,3.25
2018-08-18T12:41:12.040Z,3.50
2018-08-18T12:43:41.993Z,3.40
2018-08-18T12:46:12.221Z,4.03
2018-08-18T12:48:41.865Z,5.03
2018-08-18T12:51:11.674Z,3.87
2018-08-18T12:53:45.616Z,4.47
2018-08-18T12:56:15.601Z,3.77
2018-08-18T12:58:44.232Z,4.67
2018-08-18T13:01:13.111Z,5.70
2018-08-18T13:03:41.904Z,4.45
2018-08-18T13:06:10.774Z,6.45
2018-08-18T13:08:39.261Z,4.00
2018-08-18T13:11:07.716Z,4.20
2018-08-18T13:13:36.344Z,3.92
2018-08-18T13:16:04.816Z,5.40
2018-08-18T13:18:34.059Z,4.03
2018-08-18T13:21:02.532Z,3.60
2018-08-18T13:23:31.120Z,5.87
2018-08-18T13:25:59.547Z,4.50
2018-08-18T13:28:28.054Z,3.77
2018-08-18T13:30:56.532Z,3.60
2018-08-18T13:33:26.015Z,4.22
2018-08-18T13:35:54.952Z,3.95
2018-08-18T13:38:30.315Z,4.22
2018-08-18T13:40:58.824Z,4.42
2018-08-18T13:43:39.429Z,4.28
2018-08-18T13:46:09.265Z,3.87
2018-08-18T13:48:37.958Z,4.37
2018-08-18T13:51:07.532Z,3.92
2018-08-18T13:53:40.302Z,4.10
2018-08-18T13:56:08.754Z,4.08
2018-08-18T13:58:37.378Z,4.67
2018-08-18T14:01:19.873Z,3.80
2018-08-18T14:03:48.388Z,3.80
2018-08-18T14:06:17.309Z,5.40
2018-08-18T14:08:48.228Z,4.00
2018-08-18T14:11:16.974Z,3.85
2018-08-18T14:13:45.495Z,3.85
2018-08-18T14:16:15.140Z,3.98
2018-08-18T14:18:43.724Z,3.85
2018-08-18T14:21:12.361Z,3.65
2018-08-18T14:23:41.161Z,3.52
2018-08-18T14:26:09.834Z,3.90
2018-08-18T14:28:38.255Z,8.73
2018-08-18T14:31:06.916Z,4.53
2018-08-18T14:33:35.514Z,4.00
2018-08-18T14:36:09.364Z,4.25
2018-08-18T14:38:37.931Z,3.85
2018-08-18T14:41:06.929Z,4.50
2018-08-18T14:43:38.534Z,4.20
2018-08-18T14:46:14.801Z,4.97
2018-08-18T14:48:43.375Z,4.62
2018-08-18T14:51:11.823Z,4.05
2018-08-18T14:53:42.009Z,5.47
2018-08-18T14:56:10.562Z,5.20
2018-08-18T14:58:42.948Z,4.50
2018-08-18T15:01:12.613Z,5.30
2018-08-18T15:03:41.777Z,4.70
2018-08-18T15:06:10.945Z,4.78
2018-08-18T15:08:39.435Z,4.65
2018-08-18T15:11:07.969Z,4.42
2018-08-18T15:13:36.384Z,4.90
2018-08-18T15:16:04.983Z,3.90
2018-08-18T15:18:33.444Z,4.28
2018-08-18T15:21:02.126Z,4.10
2018-08-18T15:23:30.462Z,4.67
2018-08-18T15:25:58.886Z,4.58
2018-08-18T15:28:28.580Z,5.12
2018-08-18T15:30:57.006Z,8.08
2018-08-18T15:33:26.730Z,4.92
2018-08-18T15:35:55.440Z,4.37
2018-08-18T15:38:43.483Z,6.17
2018-08-18T15:41:12.775Z,4.80
2018-08-18T15:43:41.223Z,5.00
2018-08-18T15:46:09.711Z,6.28
2018-08-18T15:48:42.880Z,5.22
2018-08-18T15:51:12.199Z,5.45
2018-08-18T15:53:50.205Z,5.70
2018-08-18T15:56:20.335Z,7.42
2018-08-18T15:58:49.811Z,6.70
2018-08-18T16:01:19.224Z,6.05
2018-08-18T16:03:48.960Z,6.87
2018-08-18T16:06:17.388Z,7.05
2018-08-18T16:08:45.921Z,7.37
2018-08-18T16:11:14.779Z,7.30
2018-08-18T16:13:43.273Z,7.50
2018-08-18T16:16:11.806Z,7.33
2018-08-18T16:18:40.182Z,8.00
2018-08-18T16:21:14.380Z,7.30
2018-08-18T16:23:43.546Z,6.92
2018-08-18T16:26:12.995Z,7.65
2018-08-18T16:28:42.011Z,8.53
2018-08-18T16:31:10.852Z,9.45
2018-08-18T16:33:39.378Z,9.05
2018-08-18T16:36:07.919Z,8.10
2018-08-18T16:38:36.409Z,8.80
2018-08-18T16:41:05.292Z,7.97
2018-08-18T16:43:35.281Z,8.63
2018-08-18T16:46:23.283Z,8.48
2018-08-18T16:48:52.676Z,7.65
2018-08-18T16:51:21.553Z,8.13
2018-08-18T16:53:50.329Z,8.60
2018-08-18T16:56:26.438Z,7.80
2018-08-18T16:58:56.252Z,7.62
2018-08-18T17:01:24.938Z,8.77
2018-08-18T17:03:53.546Z,8.98
2018-08-18T17:06:22.066Z,10.72
2018-08-18T17:08:50.554Z,8.45
2018-08-18T17:11:19.038Z,8.70
2018-08-18T17:13:47.873Z,8.30
2018-08-18T17:16:16.399Z,9.13
2018-08-18T17:18:44.914Z,10.17
2018-08-18T17:21:14.271Z,9.80
2018-08-18T17:23:46.052Z,9.47
2018-08-18T17:26:14.526Z,10.35
2018-08-18T17:28:43.016Z,9.38
2018-08-18T17:31:11.545Z,13.88
2018-08-18T17:33:40.031Z,9.90
2018-08-18T17:36:08.646Z,10.85
2018-08-18T17:38:37.535Z,9.13
2018-08-18T17:41:06.149Z,9.00
2018-08-18T17:43:34.678Z,9.00
2018-08-18T17:46:06.153Z,9.03
2018-08-18T17:48:40.537Z,8.90
2018-08-18T17:51:09.192Z,8.78
2018-08-18T17:53:42.684Z,8.00
2018-08-18T17:56:11.252Z,8.58
2018-08-18T17:58:39.737Z,8.80
2018-08-18T18:01:08.528Z,8.60
2018-08-18T18:03:36.944Z,8.55
2018-08-18T18:06:05.386Z,7.65
2018-08-18T18:08:33.876Z,8.40
2018-08-18T18:11:02.468Z,9.88
2018-08-18T18:13:31.219Z,9.13
2018-08-18T18:15:59.724Z,8.10
2018-08-18T18:18:36.371Z,8.20
2018-08-18T18:21:05.082Z,8.13
2018-08-18T18:23:38.635Z,7.90
2018-08-18T18:26:07.341Z,8.53
2018-08-18T18:28:36.146Z,8.60
2018-08-18T18:31:04.916Z,8.77
2018-08-18T18:33:39.261Z,8.90
2018-08-18T18:36:08.275Z,8.95
2018-08-18T18:38:51.969Z,9.35
2018-08-18T18:41:20.524Z,9.33
2018-08-18T18:43:55.747Z,10.00
2018-08-18T18:46:24.638Z,10.27
2018-08-18T18:51:50.794Z,8.98
2018-08-18T18:54:20.583Z,8.93
2018-08-18T18:56:55.573Z,8.60
2018-08-18T18:59:24.352Z,12.63
2018-08-18T19:02:03.260Z,8.38
2018-08-18T19:07:19.863Z,10.80
2018-08-18T19:09:53.848Z,9.33
2018-08-18T19:12:24.127Z,8.50
2018-08-18T19:17:39.251Z,8.68
2018-08-18T19:20:30.364Z,9.30
2018-08-18T19:23:21.369Z,9.55
2018-08-18T19:25:59.131Z,9.37
2018-08-18T19:28:28.104Z,9.08
2018-08-18T19:30:57.884Z,8.90
2018-08-18T19:33:31.667Z,8.25
2018-08-18T19:36:00.558Z,8.75
2018-08-18T19:38:29.092Z,11.00
2018-08-18T19:40:57.921Z,17.23
2018-08-18T19:43:27.713Z,12.93
2018-08-18T19:45:56.852Z,15.00
2018-08-18T19:48:26.984Z,13.10
2018-08-18T19:51:00.823Z,12.75
2018-08-18T19:53:35.776Z,11.20
2018-08-18T19:56:08.865Z,12.80
2018-08-18T19:58:37.560Z,10.28
2018-08-18T20:01:07.040Z,12.47
2018-08-18T20:03:36.078Z,15.90
2018-08-18T20:06:08.819Z,12.53
2018-08-18T20:08:37.506Z,10.00
2018-08-18T20:11:06.154Z,13.20
2018-08-18T20:13:34.785Z,13.08
2018-08-18T20:16:04.499Z,10.53
2018-08-18T20:18:33.833Z,8.83
2018-08-18T20:21:02.754Z,9.53
2018-08-18T20:23:31.351Z,12.33
2018-08-18T20:26:01.789Z,12.35
2018-08-18T20:28:31.826Z,9.60
2018-08-18T20:31:00.594Z,9.63
2018-08-18T20:33:34.483Z,9.55
2018-08-18T20:36:03.667Z,10.28
2018-08-18T20:38:38.366Z,8.60
2018-08-18T20:41:07.324Z,9.20
2018-08-18T20:43:42.304Z,9.38
2018-08-18T20:46:11.363Z,8.58
2018-08-18T20:48:40.118Z,11.80
2018-08-18T20:51:09.580Z,10.40
2018-08-18T20:56:40.591Z,9.70
2018-08-18T20:59:18.740Z,10.70
2018-08-18T21:01:47.976Z,13.70
2018-08-18T21:04:17.466Z,10.03
2018-08-18T21:06:46.903Z,9.73
2018-08-18T21:09:29.588Z,10.40
2018-08-18T21:12:04.343Z,10.20
2018-08-18T21:14:32.768Z,9.78
2018-08-18T21:17:01.420Z,10.45
2018-08-18T21:22:58.132Z,10.90
2018-08-18T21:25:39.581Z,11.33
2018-08-18T21:28:09.215Z,11.18
2018-08-18T21:30:38.106Z,11.60
2018-08-18T21:33:09.836Z,11.57
2018-08-18T21:35:39.988Z,14.03
2018-08-18T21:38:08.936Z,11.28
2018-08-18T21:40:41.244Z,13.93
2018-08-18T21:43:41.345Z,13.20
2018-08-18T21:46:12.012Z,12.18
2018-08-18T21:48:47.714Z,14.07
2018-08-18T21:51:17.371Z,13.70
2018-08-18T21:53:46.089Z,13.50
2018-08-18T21:56:16.825Z,13.05
2018-08-18T21:58:50.677Z,12.73
2018-08-18T22:01:23.802Z,16.12
2018-08-18T22:04:06.075Z,12.75
2018-08-18T22:06:35.111Z,12.73
2018-08-18T22:09:18.669Z,14.00
2018-08-18T22:11:48.501Z,12.73
2018-08-18T22:14:18.423Z,13.22
2018-08-18T22:16:55.526Z,14.45
2018-08-18T22:19:26.753Z,14.58
2018-08-18T22:22:00.259Z,13.90
2018-08-18T22:24:28.852Z,13.58
2018-08-18T22:26:57.494Z,13.72
2018-08-18T22:29:26.836Z,16.52
2018-08-18T22:31:55.856Z,16.40
2018-08-18T22:34:24.782Z,14.75
2018-08-18T22:37:01.006Z,16.32
2018-08-18T22:39:30.325Z,15.55
2018-08-18T22:41:58.974Z,16.97
2018-08-18T22:44:28.353Z,19.32
2018-08-18T22:47:00.886Z,16.62
2018-08-18T22:49:29.331Z,16.93
2018-08-18T22:52:02.854Z,16.23
2018-08-18T22:54:31.454Z,18.12
2018-08-18T22:57:01.916Z,19.65
2018-08-18T22:59:30.865Z,19.40
2018-08-18T23:01:59.640Z,17.45
2018-08-18T23:04:32.253Z,17.37
2018-08-18T23:07:02.628Z,19.65
2018-08-18T23:09:31.784Z,20.05
2018-08-18T23:12:02.316Z,17.45
2018-08-18T23:14:34.366Z,17.62
2018-08-18T23:17:03.223Z,17.57
2018-08-18T23:19:32.878Z,16.20
2018-08-18T23:22:07.120Z,16.27
2018-08-18T23:24:39.353Z,18.32
2018-08-18T23:27:08.367Z,17.40
2018-08-18T23:29:38.176Z,17.35
2018-08-18T23:35:09.654Z,16.80
2018-08-18T23:37:38.534Z,18.17
2018-08-18T23:40:07.906Z,17.73
2018-08-18T23:42:46.115Z,18.27
2018-08-18T23:45:16.024Z,18.70
2018-08-18T23:47:53.250Z,18.87
2018-08-18T23:50:22.055Z,19.40
2018-08-18T23:53:00.249Z,19.32
2018-08-18T23:55:30.169Z,19.62
2018-08-18T23:57:59.964Z,19.65
